Time;durP1;ratioP1;P1;durP2;ratioP2;P2;SDS_P1;SDS_P2;PMS_P1;PMS_P2;Temp;Humidity;BMP_temperature;BMP_pressure;BME280_temperature;BME280_humidity;BME280_pressure;Samples;Min_cycle;Max_cycle;Signal;HPM_P1;HPM_P2
2021/12/01 00:00:17;;;;;;;108.57;43.63;;;8.90;99.90;;;;;;5121535;27;20420;-82
2021/12/01 00:02:42;;;;;;;;;;;9.00;99.90;;;;;;5104677;27;20050;-82
2021/12/01 00:05:09;;;;;;;93.35;39.85;;;8.90;99.90;;;;;;5104339;27;19915;-82
2021/12/01 00:07:36;;;;;;;75.60;35.38;;;9.00;99.90;;;;;;5121098;27;20558;-82
2021/12/01 00:10:07;;;;;;;85.25;39.80;;;9.10;99.90;;;;;;5088198;27;20490;-82
2021/12/01 00:12:34;;;;;;;85.22;39.83;;;9.10;99.90;;;;;;5105652;27;20031;-82
2021/12/01 00:15:00;;;;;;;85.10;38.75;;;9.10;99.90;;;;;;5121288;27;20055;-82
2021/12/01 00:17:26;;;;;;;74.85;37.33;;;9.10;99.90;;;;;;5087372;27;20535;-82
2021/12/01 00:19:52;;;;;;;78.07;37.58;;;9.10;99.90;;;;;;5123526;27;20066;-81
2021/12/01 00:22:18;;;;;;;73.55;36.05;;;9.10;99.90;;;;;;5104402;27;20054;-83
2021/12/01 00:24:44;;;;;;;71.93;36.30;;;9.10;99.90;;;;;;5110216;27;20034;-82
2021/12/01 00:27:10;;;;;;;64.22;35.67;;;9.10;99.90;;;;;;5103910;27;20122;-82
2021/12/01 00:29:38;;;;;;;64.07;33.33;;;9.10;99.90;;;;;;5139075;27;20038;-82
2021/12/01 00:32:04;;;;;;;66.60;36.58;;;9.20;99.90;;;;;;5113550;27;20115;-82
2021/12/01 00:34:32;;;;;;;67.85;36.58;;;9.20;99.90;;;;;;5109581;27;20432;-82
2021/12/01 00:36:59;;;;;;;62.65;35.20;;;9.20;99.90;;;;;;5124806;27;20035;-82
2021/12/01 00:39:24;;;;;;;64.10;37.00;;;9.20;99.90;;;;;;5122819;27;20035;-82
2021/12/01 00:41:51;;;;;;;64.00;36.33;;;9.20;99.90;;;;;;5104463;27;20042;-82
2021/12/01 00:44:17;;;;;;;65.78;37.22;;;9.20;99.90;;;;;;5112423;27;20451;-82
2021/12/01 00:49:27;;;;;;;60.92;36.45;;;9.20;99.90;;;;;;5120064;27;20039;-82
2021/12/01 00:51:53;;;;;;;66.10;39.00;;;9.20;99.90;;;;;;5103008;27;20041;-82
2021/12/01 00:54:19;;;;;;;62.83;38.10;;;9.30;99.90;;;;;;5119055;27;20508;-82
2021/12/01 00:56:45;;;;;;;65.30;39.65;;;9.30;99.90;;;;;;5097341;27;20095;-82
2021/12/01 00:59:11;;;;;;;68.70;42.42;;;9.30;99.90;;;;;;5122469;27;20062;-82
2021/12/01 01:01:38;;;;;;;70.20;43.13;;;9.30;99.90;;;;;;5104327;27;20043;-82
2021/12/01 01:04:04;;;;;;;63.13;42.22;;;9.30;99.90;;;;;;5119737;27;20035;-82
2021/12/01 01:06:30;;;;;;;65.80;41.47;;;9.30;99.90;;;;;;5103869;27;20122;-83
2021/12/01 01:08:56;;;;;;;68.07;43.30;;;9.30;99.90;;;;;;5105211;27;20122;-82
2021/12/01 01:16:50;;;;;;;69.93;42.78;;;9.30;99.90;;;;;;5096594;27;20410;-82
2021/12/01 01:19:18;;;;;;;64.30;43.00;;;9.30;99.90;;;;;;5114690;27;20039;-82
2021/12/01 01:21:48;;;;;;;58.80;42.33;;;9.30;99.90;;;;;;5112812;27;20064;-82
2021/12/01 01:24:14;;;;;;;65.95;43.28;;;9.40;99.90;;;;;;5090135;27;20035;-83
2021/12/01 01:26:40;;;;;;;70.00;44.47;;;9.40;99.90;;;;;;5120582;27;20039;-82
2021/12/01 01:29:06;;;;;;;69.45;42.58;;;9.40;99.90;;;;;;5103130;27;20042;-82
2021/12/01 01:31:33;;;;;;;76.32;44.25;;;9.40;99.90;;;;;;5109021;27;20031;-82
2021/12/01 01:33:59;;;;;;;71.15;41.25;;;9.40;99.90;;;;;;5105943;27;20038;-82
2021/12/01 01:36:27;;;;;;;75.45;43.42;;;9.40;99.90;;;;;;5105533;27;20413;-82
2021/12/01 01:38:53;;;;;;;73.60;42.17;;;9.40;99.90;;;;;;5118729;27;20034;-82
2021/12/01 01:41:20;;;;;;;73.95;43.08;;;9.40;99.90;;;;;;5098865;27;20412;-82
2021/12/01 01:43:48;;;;;;;65.78;37.88;;;9.30;99.90;;;;;;5122522;27;20031;-82
2021/12/01 01:46:15;;;;;;;66.38;38.92;;;9.40;99.90;;;;;;5095418;28;20443;-82
2021/12/01 01:49:06;;;;;;;61.20;37.03;;;9.40;99.90;;;;;;5102475;27;20090;-82
2021/12/01 01:51:30;;;;;;;62.00;34.85;;;9.40;99.90;;;;;;5127307;27;20035;-82
2021/12/01 01:53:57;;;;;;;51.13;32.72;;;9.40;99.90;;;;;;5120344;27;20042;-82
2021/12/01 01:56:23;;;;;;;51.97;30.67;;;9.40;99.90;;;;;;5095763;28;20043;-82
2021/12/01 01:58:49;;;;;;;49.70;30.83;;;9.50;99.90;;;;;;5102344;28;20047;-82
2021/12/01 02:04:01;;;;;;;51.47;29.52;;;9.50;99.90;;;;;;5122218;27;20070;-82
2021/12/01 02:06:26;;;;;;;45.42;27.35;;;9.50;99.90;;;;;;5106134;28;20031;-82
2021/12/01 02:08:56;;;;;;;49.92;29.20;;;9.50;99.90;;;;;;5120176;27;20035;-82
2021/12/01 02:11:23;;;;;;;43.30;26.75;;;9.50;99.90;;;;;;5118708;28;20176;-82
2021/12/01 02:13:49;;;;;;;46.63;28.42;;;9.60;99.90;;;;;;5102683;27;20126;-83
2021/12/01 02:16:17;;;;;;;48.50;27.83;;;9.60;99.90;;;;;;5126180;27;20120;-82
2021/12/01 02:18:43;;;;;;;47.13;26.80;;;9.60;99.90;;;;;;5106103;27;20043;-82
2021/12/01 02:21:16;;;;;;;49.90;28.00;;;9.60;99.90;;;;;;5102074;28;20035;-82
2021/12/01 02:23:46;;;;;;;47.85;28.02;;;9.60;99.90;;;;;;5117908;28;20497;-82
2021/12/01 02:26:14;;;;;;;43.70;25.65;;;9.60;99.90;;;;;;5138542;27;20115;-82
2021/12/01 02:28:42;;;;;;;43.67;24.88;;;9.60;99.90;;;;;;5126299;27;20482;-83
2021/12/01 02:31:08;;;;;;;44.83;25.27;;;9.60;99.90;;;;;;5123667;27;20109;-82
2021/12/01 02:33:34;;;;;;;45.60;26.35;;;9.60;99.90;;;;;;5115204;27;20038;-83
2021/12/01 02:36:00;;;;;;;39.35;22.95;;;9.60;99.90;;;;;;5125796;27;20474;-83
2021/12/01 02:38:26;;;;;;;40.13;23.80;;;9.60;99.90;;;;;;5107623;27;20092;-83
2021/12/01 02:40:53;;;;;;;34.75;21.52;;;9.60;99.90;;;;;;5105841;27;20031;-83
2021/12/01 02:43:23;;;;;;;35.88;21.95;;;9.60;99.90;;;;;;5133902;27;20066;-82
2021/12/01 02:45:54;;;;;;;36.33;22.05;;;9.70;99.90;;;;;;5114372;27;20038;-82
2021/12/01 02:48:21;;;;;;;34.22;20.50;;;9.60;99.90;;;;;;5107661;27;20062;-82
2021/12/01 02:50:48;;;;;;;30.88;18.83;;;9.70;99.90;;;;;;5126023;27;20065;-82
2021/12/01 02:53:13;;;;;;;34.10;20.27;;;9.70;99.90;;;;;;5091893;27;20034;-83
2021/12/01 02:55:48;;;;;;;34.30;19.75;;;9.70;99.90;;;;;;5122480;27;20039;-82
2021/12/01 02:58:16;;;;;;;34.60;19.20;;;9.70;99.90;;;;;;5118315;27;20038;-82
2021/12/01 03:00:42;;;;;;;30.95;18.58;;;9.70;99.90;;;;;;5090690;27;20431;-82
2021/12/01 03:03:10;;;;;;;29.40;18.05;;;9.70;99.90;;;;;;5105473;27;20057;-82
2021/12/01 03:05:36;;;;;;;27.85;16.98;;;9.70;99.90;;;;;;5119999;27;20046;-82
2021/12/01 03:08:02;;;;;;;24.45;15.88;;;9.80;99.90;;;;;;5079320;27;20022;-83
2021/12/01 03:10:28;;;;;;;26.23;15.93;;;9.80;99.90;;;;;;5142057;27;20034;-83
2021/12/01 03:12:54;;;;;;;24.10;14.05;;;9.80;99.90;;;;;;5091938;27;20031;-83
2021/12/01 03:15:20;;;;;;;18.65;12.00;;;9.80;99.90;;;;;;5104124;27;20092;-83
2021/12/01 03:17:46;;;;;;;17.20;10.98;;;9.80;99.90;;;;;;5122326;27;20042;-83
2021/12/01 03:20:14;;;;;;;12.75;8.70;;;9.80;99.90;;;;;;5096059;27;20035;-82
2021/12/01 03:22:42;;;;;;;10.15;6.50;;;9.90;99.90;;;;;;5119588;27;20035;-83
2021/12/01 03:25:13;;;;;;;6.57;3.67;;;9.90;99.90;;;;;;5094669;27;20038;-83
2021/12/01 03:27:39;;;;;;;9.32;5.30;;;10.00;99.90;;;;;;5107713;27;20064;-83
2021/12/01 03:30:10;;;;;;;7.28;4.22;;;10.00;99.90;;;;;;5127298;27;20374;-83
2021/12/01 03:32:37;;;;;;;7.05;4.30;;;10.00;99.90;;;;;;5111638;27;20031;-82
2021/12/01 03:35:14;;;;;;;8.48;4.93;;;10.00;99.90;;;;;;5114762;27;20039;-82
2021/12/01 03:37:42;;;;;;;9.52;5.55;;;10.00;99.90;;;;;;5114245;27;20092;-82
2021/12/01 03:40:09;;;;;;;10.68;6.22;;;10.00;99.90;;;;;;5115565;27;20047;-83
2021/12/01 03:42:35;;;;;;;11.65;6.68;;;9.90;99.90;;;;;;5092834;27;20039;-83
2021/12/01 03:45:01;;;;;;;9.48;5.47;;;9.90;99.90;;;;;;5118194;27;20121;-82
2021/12/01 03:47:27;;;;;;;9.85;6.28;;;9.90;99.90;;;;;;5093259;27;20050;-83
2021/12/01 03:49:54;;;;;;;11.23;6.25;;;9.90;99.90;;;;;;5107408;27;20470;-83
2021/12/01 03:52:20;;;;;;;12.07;6.05;;;9.90;99.90;;;;;;5124840;27;20030;-83
2021/12/01 03:54:47;;;;;;;10.00;6.20;;;9.90;99.90;;;;;;5130942;27;20054;-83
2021/12/01 03:57:14;;;;;;;9.25;6.03;;;10.00;99.90;;;;;;5128550;27;20069;-83
2021/12/01 03:59:41;;;;;;;10.18;6.40;;;10.00;99.90;;;;;;5103964;27;20093;-83
2021/12/01 04:02:07;;;;;;;10.20;7.00;;;10.00;99.90;;;;;;5104434;27;20039;-83
2021/12/01 04:04:33;;;;;;;11.82;7.30;;;9.90;99.90;;;;;;5127350;27;20047;-83
2021/12/01 04:06:59;;;;;;;10.85;7.13;;;9.90;99.90;;;;;;5124941;27;20190;-83
2021/12/01 04:09:25;;;;;;;12.10;7.95;;;9.90;99.90;;;;;;5088423;27;20114;-83
2021/12/01 04:11:51;;;;;;;12.55;8.32;;;9.90;99.90;;;;;;5116028;27;20447;-83
2021/12/01 04:14:17;;;;;;;13.38;8.93;;;9.90;99.90;;;;;;5090960;27;20035;-83
2021/12/01 04:16:43;;;;;;;12.30;8.45;;;9.80;99.90;;;;;;5120838;27;20047;-83
2021/12/01 04:19:09;;;;;;;10.65;7.57;;;9.80;99.90;;;;;;5117728;27;20410;-83
2021/12/01 04:21:36;;;;;;;14.00;9.27;;;9.90;99.90;;;;;;5106107;27;20078;-82
2021/12/01 04:24:02;;;;;;;11.57;8.23;;;9.90;99.90;;;;;;5119752;27;20039;-83
2021/12/01 04:26:31;;;;;;;12.40;8.70;;;9.90;99.90;;;;;;5121797;27;20035;-82
2021/12/01 04:28:58;;;;;;;11.20;8.07;;;9.80;99.90;;;;;;5103678;27;20042;-83
2021/12/01 04:31:24;;;;;;;10.18;7.55;;;9.80;99.90;;;;;;5104590;27;20037;-82
2021/12/01 04:33:50;;;;;;;11.57;8.15;;;9.70;99.90;;;;;;5112949;27;20046;-82
2021/12/01 04:36:20;;;;;;;10.90;8.07;;;9.80;99.90;;;;;;5140358;27;20407;-82
2021/12/01 04:38:46;;;;;;;10.30;7.30;;;9.70;99.90;;;;;;5089398;27;20030;-83
2021/12/01 04:41:13;;;;;;;9.60;7.10;;;9.70;99.90;;;;;;5134107;27;20087;-83
2021/12/01 04:43:40;;;;;;;10.45;7.25;;;9.70;99.90;;;;;;5118393;27;20043;-83
2021/12/01 04:46:06;;;;;;;8.80;6.18;;;9.70;99.90;;;;;;5120684;27;20039;-82
2021/12/01 04:48:33;;;;;;;8.20;5.45;;;9.70;99.90;;;;;;5096252;27;20054;-82
2021/12/01 04:51:00;;;;;;;7.20;5.00;;;9.70;99.90;;;;;;5088596;28;20045;-82
2021/12/01 04:53:26;;;;;;;7.75;5.20;;;9.70;99.90;;;;;;5115531;28;20039;-83
2021/12/01 04:55:54;;;;;;;6.90;4.50;;;9.70;99.90;;;;;;5082501;28;20036;-83
2021/12/01 04:58:21;;;;;;;6.47;4.38;;;9.70;99.90;;;;;;5103211;27;20128;-82
2021/12/01 05:00:47;;;;;;;7.13;4.20;;;9.60;99.90;;;;;;5099771;28;20114;-83
2021/12/01 05:03:13;;;;;;;6.68;4.30;;;9.60;99.90;;;;;;5127761;27;20046;-82
2021/12/01 05:05:39;;;;;;;6.45;4.15;;;9.60;99.90;;;;;;5082057;28;20043;-83
2021/12/01 05:08:05;;;;;;;6.30;4.32;;;9.60;99.90;;;;;;5088467;28;20024;-83
2021/12/01 05:10:31;;;;;;;6.70;4.13;;;9.60;99.90;;;;;;5118497;27;20049;-83
2021/12/01 05:12:57;;;;;;;6.85;3.75;;;9.60;99.90;;;;;;5106452;27;20031;-83
2021/12/01 05:15:22;;;;;;;6.05;4.20;;;9.60;99.90;;;;;;5104876;28;20042;-83
2021/12/01 05:17:49;;;;;;;6.60;4.32;;;9.60;99.90;;;;;;5098844;28;20087;-82
2021/12/01 05:20:15;;;;;;;6.15;3.70;;;9.50;99.90;;;;;;5074654;28;20044;-82
2021/12/01 05:22:43;;;;;;;6.97;4.25;;;9.50;99.90;;;;;;5101082;28;20041;-82
2021/12/01 05:25:10;;;;;;;6.50;4.13;;;9.50;99.90;;;;;;5087930;28;20542;-82
2021/12/01 05:27:35;;;;;;;6.95;4.10;;;9.40;99.90;;;;;;5096528;27;20484;-82
2021/12/01 05:30:02;;;;;;;6.45;3.85;;;9.40;99.90;;;;;;5070318;28;20100;-83
2021/12/01 05:32:29;;;;;;;6.22;3.38;;;9.40;99.90;;;;;;5099064;27;20035;-83
2021/12/01 05:34:55;;;;;;;5.88;3.90;;;9.40;99.90;;;;;;5102160;27;20046;-82
2021/12/01 05:37:21;;;;;;;5.90;3.58;;;9.40;99.90;;;;;;5107326;28;20126;-83
2021/12/01 05:39:46;;;;;;;6.45;4.05;;;9.40;99.90;;;;;;5099056;28;20086;-83
2021/12/01 05:42:13;;;;;;;7.03;4.40;;;9.30;99.90;;;;;;5096731;28;20057;-83
2021/12/01 05:44:40;;;;;;;6.63;4.57;;;9.30;99.90;;;;;;5115420;28;20047;-83
2021/12/01 05:47:06;;;;;;;6.15;4.00;;;9.30;99.90;;;;;;5116804;28;20047;-83
2021/12/01 05:49:32;;;;;;;6.40;3.78;;;9.30;99.90;;;;;;5097974;28;20409;-83
2021/12/01 05:51:59;;;;;;;6.55;4.13;;;9.20;99.90;;;;;;5084642;28;20035;-83
2021/12/01 05:54:25;;;;;;;6.03;4.05;;;9.20;99.90;;;;;;5099505;28;20104;-83
2021/12/01 05:56:51;;;;;;;6.40;4.03;;;9.20;99.90;;;;;;5099078;28;20036;-83
2021/12/01 05:59:17;;;;;;;5.97;3.72;;;9.10;99.90;;;;;;5130113;28;20043;-83
2021/12/01 06:01:43;;;;;;;5.75;3.72;;;9.20;99.90;;;;;;5114686;27;20049;-82
2021/12/01 06:04:08;;;;;;;6.00;3.65;;;9.10;99.90;;;;;;5132260;27;20092;-83
2021/12/01 06:06:34;;;;;;;5.85;3.15;;;9.10;99.90;;;;;;5125319;27;20119;-83
2021/12/01 06:09:00;;;;;;;6.57;3.40;;;9.10;99.90;;;;;;5099462;27;20032;-83
2021/12/01 06:11:26;;;;;;;5.90;3.47;;;9.10;99.90;;;;;;5102916;27;20035;-83
2021/12/01 06:13:53;;;;;;;5.00;3.08;;;9.10;99.90;;;;;;5094186;27;20039;-82
2021/12/01 06:16:20;;;;;;;5.50;3.30;;;9.10;99.90;;;;;;5101237;28;20039;-83
2021/12/01 06:18:46;;;;;;;5.88;3.20;;;9.00;99.90;;;;;;5107573;28;20475;-82
2021/12/01 06:21:12;;;;;;;5.75;3.42;;;9.00;99.90;;;;;;5110769;27;20074;-83
2021/12/01 06:23:37;;;;;;;5.30;3.22;;;9.00;99.90;;;;;;5100230;27;20482;-83
2021/12/01 06:26:03;;;;;;;6.13;3.55;;;9.00;99.90;;;;;;5088240;27;20092;-83
2021/12/01 06:28:29;;;;;;;5.50;3.65;;;8.90;99.90;;;;;;5102969;27;20042;-83
2021/12/01 06:30:55;;;;;;;6.15;3.55;;;9.00;99.90;;;;;;5086624;27;20069;-83
2021/12/01 06:33:21;;;;;;;5.32;3.83;;;9.00;99.90;;;;;;5089145;28;20039;-83
2021/12/01 06:35:49;;;;;;;6.53;4.00;;;9.00;99.90;;;;;;5104107;27;20513;-83
2021/12/01 06:38:16;;;;;;;7.05;4.07;;;8.90;99.90;;;;;;5104990;27;20122;-82
2021/12/01 06:40:43;;;;;;;6.35;3.72;;;9.00;99.90;;;;;;5121791;27;20557;-83
2021/12/01 06:43:09;;;;;;;7.35;3.80;;;8.90;99.90;;;;;;5098688;27;20050;-82
2021/12/01 06:45:34;;;;;;;7.18;4.70;;;9.00;99.90;;;;;;5110743;27;20487;-83
2021/12/01 06:48:00;;;;;;;6.05;4.25;;;8.90;99.90;;;;;;5084731;27;20053;-83
2021/12/01 06:50:26;;;;;;;6.65;4.07;;;8.90;99.90;;;;;;5118545;27;20524;-83
2021/12/01 06:52:52;;;;;;;6.07;3.90;;;9.00;99.90;;;;;;5102505;27;20028;-83
2021/12/01 06:55:20;;;;;;;6.63;4.00;;;8.90;99.90;;;;;;5104958;28;20051;-83
2021/12/01 06:57:46;;;;;;;6.60;4.40;;;8.90;99.90;;;;;;5117913;27;20084;-83
2021/12/01 07:00:12;;;;;;;6.00;3.53;;;9.00;99.90;;;;;;5104134;27;20043;-82
2021/12/01 07:02:38;;;;;;;6.00;4.18;;;8.90;99.90;;;;;;5115071;27;20042;-83
2021/12/01 07:05:05;;;;;;;6.65;4.60;;;8.90;99.90;;;;;;5108311;28;20491;-82
2021/12/01 07:07:30;;;;;;;6.68;4.63;;;8.90;99.90;;;;;;5123132;27;20046;-83
2021/12/01 07:09:56;;;;;;;7.15;3.78;;;8.90;99.90;;;;;;5101458;28;20044;-83
2021/12/01 07:12:23;;;;;;;6.35;4.15;;;8.90;99.90;;;;;;5101380;27;20076;-83
2021/12/01 07:14:49;;;;;;;6.63;4.28;;;8.90;99.90;;;;;;5083704;27;20097;-82
2021/12/01 07:17:15;;;;;;;6.30;4.35;;;8.90;99.90;;;;;;5081513;27;20046;-83
2021/12/01 07:19:41;;;;;;;6.47;4.20;;;8.80;99.90;;;;;;5088273;27;20418;-83
2021/12/01 07:22:07;;;;;;;6.25;4.13;;;8.90;99.90;;;;;;5087291;27;20035;-83
2021/12/01 07:24:33;;;;;;;5.80;3.88;;;8.90;99.90;;;;;;5033525;28;20135;-83
2021/12/01 07:26:59;;;;;;;6.10;3.50;;;8.80;99.90;;;;;;5011384;28;20029;-83
2021/12/01 07:29:25;;;;;;;6.28;3.90;;;8.80;99.90;;;;;;5054723;28;20039;-83
2021/12/01 07:31:52;;;;;;;7.40;4.03;;;8.80;99.90;;;;;;5023662;28;20434;-83
2021/12/01 07:34:18;;;;;;;6.25;4.00;;;8.80;99.90;;;;;;5036625;28;20068;-83
2021/12/01 07:36:43;;;;;;;6.13;4.05;;;8.80;99.90;;;;;;5060345;28;20040;-83
2021/12/01 07:39:09;;;;;;;5.70;3.60;;;8.70;99.90;;;;;;5039546;28;20049;-83
2021/12/01 07:41:35;;;;;;;6.45;3.75;;;8.70;99.90;;;;;;5053121;28;20037;-83
2021/12/01 07:44:01;;;;;;;5.35;3.33;;;8.80;99.90;;;;;;5056988;28;20032;-83
2021/12/01 07:46:26;;;;;;;5.80;3.72;;;8.80;99.90;;;;;;5054023;28;20044;-82
2021/12/01 07:48:52;;;;;;;5.75;3.67;;;8.80;99.90;;;;;;5041188;28;20044;-82
2021/12/01 07:51:18;;;;;;;5.38;3.38;;;8.80;99.90;;;;;;5062301;28;20032;-82
2021/12/01 07:53:44;;;;;;;5.00;2.92;;;8.80;99.90;;;;;;5042800;28;20203;-83
2021/12/01 07:56:10;;;;;;;5.50;3.45;;;8.80;99.90;;;;;;5066085;28;20083;-82
2021/12/01 07:58:36;;;;;;;5.35;3.10;;;8.80;99.90;;;;;;5060247;28;20430;-83
2021/12/01 08:01:01;;;;;;;5.35;3.20;;;8.70;99.90;;;;;;5047988;28;20040;-82
2021/12/01 08:03:27;;;;;;;4.80;2.90;;;8.70;99.90;;;;;;5063135;28;20111;-83
2021/12/01 08:05:53;;;;;;;5.68;3.00;;;8.70;99.90;;;;;;5062310;28;20127;-83
2021/12/01 08:08:19;;;;;;;5.00;3.17;;;8.80;99.90;;;;;;5042624;28;20036;-83
2021/12/01 08:10:46;;;;;;;4.93;2.92;;;8.80;99.90;;;;;;5074250;28;20036;-82
2021/12/01 08:13:12;;;;;;;5.40;3.25;;;8.70;99.90;;;;;;5046561;28;20039;-83
2021/12/01 08:15:38;;;;;;;5.30;3.47;;;8.80;99.90;;;;;;5059822;28;20040;-83
2021/12/01 08:18:03;;;;;;;5.10;3.45;;;8.70;99.90;;;;;;5061575;28;20036;-83
2021/12/01 08:20:30;;;;;;;5.47;3.60;;;8.80;99.90;;;;;;5079336;28;20109;-83
2021/12/01 08:22:55;;;;;;;5.45;3.40;;;8.80;99.90;;;;;;5078467;28;20087;-82
2021/12/01 08:25:22;;;;;;;5.47;3.72;;;8.80;99.90;;;;;;5041746;28;20147;-83
2021/12/01 08:27:48;;;;;;;6.43;4.00;;;8.80;99.90;;;;;;5040913;28;20039;-83
2021/12/01 08:30:15;;;;;;;6.32;4.30;;;8.90;99.90;;;;;;5080493;28;20422;-84
2021/12/01 08:32:45;;;;;;;6.85;4.40;;;8.90;99.90;;;;;;5060477;28;20040;-83
2021/12/01 08:35:12;;;;;;;6.32;4.55;;;8.90;99.90;;;;;;5043391;28;20431;-83
2021/12/01 08:37:38;;;;;;;6.28;4.65;;;8.90;99.90;;;;;;5059753;28;20036;-83
2021/12/01 08:40:05;;;;;;;6.40;4.70;;;8.90;99.90;;;;;;5044706;28;20036;-83
2021/12/01 08:42:31;;;;;;;6.88;4.68;;;9.00;99.90;;;;;;5062457;28;20125;-83
2021/12/01 08:44:57;;;;;;;6.38;4.28;;;8.90;99.90;;;;;;5032470;28;20048;-83
2021/12/01 08:47:25;;;;;;;6.88;4.70;;;9.10;99.90;;;;;;5042853;28;20052;-82
2021/12/01 08:49:51;;;;;;;6.63;4.80;;;9.10;99.90;;;;;;5055346;28;20464;-83
2021/12/01 08:52:17;;;;;;;6.57;4.50;;;9.00;99.90;;;;;;5078316;28;20376;-83
2021/12/01 08:54:43;;;;;;;7.15;5.28;;;9.50;99.90;;;;;;5062179;28;20077;-82
2021/12/01 08:57:09;;;;;;;7.97;5.00;;;9.00;99.90;;;;;;5031889;28;20040;-83
2021/12/01 08:59:36;;;;;;;10.07;6.50;;;9.10;99.90;;;;;;5045520;28;20065;-82
2021/12/01 09:02:02;;;;;;;8.55;6.00;;;9.00;99.90;;;;;;5060571;28;20051;-83
2021/12/01 09:04:28;;;;;;;9.02;5.80;;;9.10;99.90;;;;;;5049979;28;20075;-82
2021/12/01 09:06:56;;;;;;;9.05;6.25;;;9.00;99.90;;;;;;5056885;28;20032;-82
2021/12/01 09:09:22;;;;;;;10.93;6.72;;;9.00;99.90;;;;;;5062211;28;20070;-82
2021/12/01 09:11:51;;;;;;;8.38;5.80;;;9.10;99.90;;;;;;5062759;28;20384;-82
2021/12/01 09:14:18;;;;;;;8.65;6.72;;;9.10;99.90;;;;;;5062760;28;20103;-82
2021/12/01 09:16:45;;;;;;;9.55;6.22;;;9.10;99.90;;;;;;5058893;28;20094;-82
2021/12/01 09:19:11;;;;;;;8.57;5.25;;;9.10;99.90;;;;;;5039935;28;20044;-82
2021/12/01 09:21:37;;;;;;;7.10;4.13;;;9.20;99.90;;;;;;5047920;28;20040;-82
2021/12/01 09:24:04;;;;;;;8.68;4.63;;;9.20;99.90;;;;;;5055243;28;20114;-83
2021/12/01 09:26:32;;;;;;;10.35;4.43;;;9.30;99.90;;;;;;5066123;28;20380;-82
2021/12/01 09:28:57;;;;;;;8.63;3.05;;;9.30;99.90;;;;;;5044758;28;20098;-83
2021/12/01 09:31:23;;;;;;;11.35;3.30;;;9.30;99.90;;;;;;5062454;28;20040;-82
2021/12/01 09:33:49;;;;;;;7.65;2.45;;;9.30;99.90;;;;;;5061690;28;20134;-83
2021/12/01 09:36:15;;;;;;;8.43;2.60;;;9.40;99.90;;;;;;5078375;28;20082;-83
2021/12/01 09:38:41;;;;;;;11.48;2.47;;;9.30;99.90;;;;;;5077321;28;20078;-83
2021/12/01 09:41:07;;;;;;;9.52;2.40;;;9.30;99.90;;;;;;5059998;28;20036;-82
2021/12/01 09:43:33;;;;;;;10.70;2.30;;;9.30;99.90;;;;;;5058220;28;20044;-84
2021/12/01 09:46:04;;;;;;;11.85;2.00;;;9.30;99.90;;;;;;5046767;28;20052;-83
2021/12/01 09:48:31;;;;;;;11.00;2.10;;;9.30;99.90;;;;;;5056926;28;20056;-82
2021/12/01 09:50:57;;;;;;;10.68;2.20;;;9.30;99.90;;;;;;5077949;28;20044;-82
2021/12/01 09:53:22;;;;;;;9.75;2.00;;;9.30;99.90;;;;;;5060371;28;20066;-82
2021/12/01 09:55:49;;;;;;;7.28;1.70;;;9.30;99.90;;;;;;5054303;28;20047;-82
2021/12/01 09:58:22;;;;;;;8.98;2.00;;;9.30;99.90;;;;;;5053939;28;20043;-82
2021/12/01 10:01:11;;;;;;;10.27;1.83;;;9.30;99.90;;;;;;5057028;28;20032;-83
2021/12/01 10:03:37;;;;;;;10.63;1.88;;;9.30;99.90;;;;;;5055352;28;20055;-82
2021/12/01 10:06:04;;;;;;;7.13;1.60;;;9.40;99.90;;;;;;5047667;28;20051;-82
2021/12/01 10:08:34;;;;;;;11.93;2.28;;;9.30;99.90;;;;;;5043981;28;20045;-83
2021/12/01 10:11:05;;;;;;;13.40;2.20;;;9.30;99.90;;;;;;5061751;28;20110;-83
2021/12/01 10:13:34;;;;;;;8.57;1.95;;;9.20;99.90;;;;;;5077799;28;20096;-82
2021/12/01 10:16:04;;;;;;;11.25;2.10;;;9.20;99.90;;;;;;5073075;28;20059;-82
2021/12/01 10:18:38;;;;;;;8.73;1.83;;;9.10;99.90;;;;;;5049072;28;20052;-83
2021/12/01 10:21:08;;;;;;;10.85;2.17;;;9.10;99.90;;;;;;5060093;28;20412;-83
2021/12/01 10:23:37;;;;;;;8.65;1.33;;;9.10;99.90;;;;;;5077803;28;20044;-83
2021/12/01 10:26:19;;;;;;;9.32;1.58;;;9.10;99.90;;;;;;5058918;28;20116;-82
2021/12/01 10:28:48;;;;;;;11.10;1.90;;;9.20;99.90;;;;;;5069588;28;20051;-83
2021/12/01 10:31:15;;;;;;;11.10;1.67;;;9.20;99.90;;;;;;5044102;28;20430;-82
2021/12/01 10:33:42;;;;;;;9.60;1.60;;;9.20;99.90;;;;;;5084788;28;20099;-83
2021/12/01 10:36:10;;;;;;;11.57;1.90;;;9.30;99.90;;;;;;5046870;28;20116;-84
2021/12/01 10:38:39;;;;;;;9.65;1.90;;;9.30;99.90;;;;;;5040531;28;20407;-83
2021/12/01 10:41:14;;;;;;;11.35;1.95;;;9.30;99.90;;;;;;5075437;28;20044;-83
2021/12/01 10:43:48;;;;;;;9.65;2.05;;;9.30;99.90;;;;;;5040627;28;20037;-83
2021/12/01 10:46:18;;;;;;;11.20;2.03;;;9.30;99.90;;;;;;5069278;28;20040;-83
2021/12/01 10:49:03;;;;;;;9.80;1.63;;;9.30;99.90;;;;;;5066488;28;20047;-83
2021/12/01 10:51:35;;;;;;;11.15;1.90;;;9.30;99.90;;;;;;5052481;28;20308;-83
2021/12/01 10:54:01;;;;;;;;;;;9.30;99.90;;;;;;5083288;28;20517;-83
2021/12/01 10:56:27;;;;;;;9.65;1.80;;;9.20;99.90;;;;;;5078577;28;19982;-83
2021/12/01 10:58:52;;;;;;;10.32;1.80;;;9.30;99.90;;;;;;5079336;28;20115;-83
2021/12/01 11:01:19;;;;;;;10.90;1.67;;;9.30;99.90;;;;;;5065611;28;20040;-82
2021/12/01 11:03:46;;;;;;;9.98;1.85;;;9.30;99.90;;;;;;5098635;28;20042;-82
2021/12/01 11:06:19;;;;;;;12.43;1.77;;;9.30;99.90;;;;;;5061599;28;20067;-83
2021/12/01 11:08:55;;;;;;;8.07;1.70;;;9.30;99.90;;;;;;5071923;28;20040;-82
2021/12/01 11:11:23;;;;;;;9.60;1.90;;;9.30;99.90;;;;;;5053965;28;20046;-82
2021/12/01 11:13:49;;;;;;;12.85;1.88;;;9.40;99.90;;;;;;5064935;28;20124;-82
2021/12/01 11:16:17;;;;;;;12.48;2.20;;;9.30;99.90;;;;;;5048713;28;20083;-83
2021/12/01 11:18:51;;;;;;;12.25;1.95;;;9.40;99.90;;;;;;5048727;28;20044;-82
2021/12/01 11:21:23;;;;;;;10.82;2.05;;;9.30;99.90;;;;;;5065224;28;20378;-82
2021/12/01 11:23:55;;;;;;;11.15;2.15;;;9.30;99.90;;;;;;5049421;28;20067;-82
2021/12/01 11:26:29;;;;;;;12.35;2.30;;;9.30;99.90;;;;;;5081858;28;20510;-83
2021/12/01 11:29:02;;;;;;;8.50;1.75;;;9.30;99.90;;;;;;5052385;28;20040;-83
2021/12/01 11:31:38;;;;;;;13.75;2.50;;;9.40;99.90;;;;;;5067255;28;20065;-83
2021/12/01 11:34:08;;;;;;;12.65;2.22;;;9.40;99.90;;;;;;5064965;28;20032;-82
2021/12/01 11:36:41;;;;;;;10.27;2.05;;;9.30;99.90;;;;;;5044422;28;20043;-82
2021/12/01 11:39:13;;;;;;;13.55;2.67;;;9.20;99.90;;;;;;5073950;28;20046;-82
2021/12/01 11:41:42;;;;;;;15.48;2.70;;;9.30;99.90;;;;;;5063869;28;20036;-82
2021/12/01 11:44:10;;;;;;;13.32;2.40;;;9.20;99.90;;;;;;5064666;28;20031;-82
2021/12/01 11:46:36;;;;;;;12.48;2.50;;;9.20;99.90;;;;;;5055900;28;20102;-83
2021/12/01 11:49:08;;;;;;;13.75;2.60;;;9.20;99.90;;;;;;5043480;28;20041;-83
2021/12/01 11:51:46;;;;;;;15.15;2.85;;;9.20;99.90;;;;;;5073811;28;20028;-83
2021/12/01 11:54:22;;;;;;;12.13;2.72;;;9.20;99.90;;;;;;5063816;28;20032;-82
2021/12/01 11:57:09;;;;;;;13.52;2.35;;;9.20;99.90;;;;;;5047910;28;20036;-82
2021/12/01 11:59:44;;;;;;;14.70;2.80;;;9.20;99.90;;;;;;5079962;28;20036;-82
2021/12/01 12:02:16;;;;;;;18.48;2.70;;;9.20;99.90;;;;;;5064108;28;20071;-83
2021/12/01 12:04:44;;;;;;;16.30;3.03;;;9.20;99.90;;;;;;5063635;28;20040;-82
2021/12/01 12:07:11;;;;;;;18.30;3.03;;;9.20;99.90;;;;;;5093044;28;20040;-82
2021/12/01 12:09:37;;;;;;;15.65;3.17;;;9.10;99.90;;;;;;5080516;28;20040;-82
2021/12/01 12:12:10;;;;;;;18.00;2.55;;;9.10;99.90;;;;;;5079348;28;20040;-82
2021/12/01 12:14:43;;;;;;;14.88;2.97;;;9.10;99.90;;;;;;5055638;28;20126;-82
2021/12/01 12:17:14;;;;;;;14.07;2.67;;;9.20;99.90;;;;;;5057288;28;20199;-82
2021/12/01 12:19:46;;;;;;;16.27;3.17;;;9.20;99.90;;;;;;5063399;28;20145;-83
2021/12/01 12:22:18;;;;;;;15.40;2.95;;;9.10;99.90;;;;;;5097104;28;20277;-83
2021/12/01 12:24:56;;;;;;;18.00;3.10;;;9.00;99.90;;;;;;5051446;28;20074;-83
2021/12/01 12:27:39;;;;;;;16.92;3.15;;;8.90;99.90;;;;;;5091220;28;20092;-82
2021/12/01 12:30:13;;;;;;;15.23;2.78;;;8.90;99.90;;;;;;5063221;28;20036;-83
2021/12/01 12:32:42;;;;;;;13.38;2.72;;;9.00;99.90;;;;;;5048931;28;20473;-82
2021/12/01 12:35:17;;;;;;;15.52;3.05;;;9.00;99.90;;;;;;5046507;28;20036;-83
2021/12/01 12:37:43;;;;;;;14.55;2.72;;;9.00;99.90;;;;;;5078651;28;20499;-82
2021/12/01 12:40:21;;;;;;;17.27;3.05;;;9.00;99.90;;;;;;5042489;28;20076;-82
2021/12/01 12:43:06;;;;;;;18.27;2.72;;;9.00;99.90;;;;;;5063323;28;20035;-82
2021/12/01 12:45:32;;;;;;;20.92;3.30;;;8.90;99.90;;;;;;5056562;28;20063;-83
2021/12/01 12:47:58;;;;;;;14.77;3.10;;;8.80;99.90;;;;;;5054416;28;20105;-82
2021/12/01 12:50:24;;;;;;;18.67;2.95;;;8.80;99.90;;;;;;5046774;28;20040;-82
2021/12/01 12:53:03;;;;;;;21.50;3.45;;;8.60;99.90;;;;;;5062701;28;20445;-82
2021/12/01 12:55:29;;;;;;;20.20;3.17;;;8.70;99.90;;;;;;5061175;28;20041;-82
2021/12/01 12:57:56;;;;;;;16.80;3.15;;;8.60;99.90;;;;;;5052488;28;20047;-82
2021/12/01 13:00:32;;;;;;;15.02;3.15;;;8.60;99.90;;;;;;5074961;28;20036;-82
2021/12/01 13:03:21;;;;;;;14.75;2.92;;;8.70;99.90;;;;;;5053181;28;20036;-82